createdAt,value
2018-07-23T00:07:01.448Z,5.6
2018-07-23T00:12:01.515Z,5.8
2018-07-23T00:17:01.354Z,5.8
2018-07-23T00:22:01.455Z,6.0
2018-07-23T00:27:01.397Z,6.0
2018-07-23T00:32:01.454Z,6.0
2018-07-23T00:37:01.374Z,6.2
2018-07-23T00:42:01.503Z,6.7
2018-07-23T00:47:01.411Z,6.8
2018-07-23T00:52:01.512Z,7.0
2018-07-23T00:57:01.405Z,7.0
2018-07-23T01:02:01.445Z,7.0
2018-07-23T01:07:01.381Z,6.6
2018-07-23T01:12:01.441Z,6.8
2018-07-23T01:17:02.384Z,7.1
2018-07-23T01:22:01.521Z,7.5
2018-07-23T01:27:01.323Z,7.9
2018-07-23T01:32:01.393Z,8.7
2018-07-23T01:37:01.433Z,9.4
2018-07-23T01:42:01.461Z,9.0
2018-07-23T01:47:01.413Z,9.4
2018-07-23T01:52:01.512Z,9.4
2018-07-23T02:02:01.527Z,9.0
2018-07-23T02:07:01.378Z,9.4
2018-07-23T02:12:01.420Z,9.2
2018-07-23T02:17:01.384Z,9.6
2018-07-23T02:22:01.453Z,10.1
2018-07-23T02:27:01.384Z,10.4
2018-07-23T02:32:01.517Z,10.8
2018-07-23T02:37:06.421Z,11.2
2018-07-23T02:42:01.372Z,11.2
2018-07-23T02:47:01.378Z,10.9
2018-07-23T02:52:01.440Z,10.7
2018-07-23T02:57:01.354Z,10.5
2018-07-23T03:02:01.392Z,10.2
2018-07-23T03:07:01.395Z,10.2
2018-07-23T03:12:06.492Z,10.1
2018-07-23T03:17:06.340Z,10.5
2018-07-23T03:22:06.464Z,10.7
2018-07-23T03:27:01.571Z,11.5
2018-07-23T03:32:01.540Z,11.7
2018-07-23T03:37:01.411Z,12.0
2018-07-23T03:42:01.501Z,11.9
2018-07-23T03:47:01.386Z,12.3
2018-07-23T03:52:01.413Z,12.2
2018-07-23T03:57:01.419Z,12.0
2018-07-23T04:02:01.478Z,12.2
2018-07-23T04:07:01.379Z,12.5
2018-07-23T04:12:01.414Z,12.4
2018-07-23T04:17:01.384Z,12.7
2018-07-23T04:22:01.505Z,13.1
2018-07-23T04:27:01.381Z,13.7
2018-07-23T04:32:01.445Z,14.1
2018-07-23T04:42:01.418Z,14.7
2018-07-23T04:47:01.387Z,15.3
2018-07-23T04:52:06.463Z,15.5
2018-07-23T04:57:01.795Z,15.6
2018-07-23T05:02:06.399Z,15.6
2018-07-23T05:07:01.412Z,15.2
2018-07-23T05:18:01.569Z,14.5
2018-07-23T05:23:01.451Z,14.9
2018-07-23T05:28:01.383Z,15.2
2018-07-23T05:33:01.521Z,15.5
2018-07-23T05:38:01.410Z,15.5
2018-07-23T05:43:06.521Z,16.0
2018-07-23T05:48:01.324Z,15.6
2018-07-23T05:53:01.448Z,15.8
2018-07-23T05:58:01.448Z,15.3
2018-07-23T06:03:01.443Z,15.1
2018-07-23T06:08:01.380Z,14.7
2018-07-23T06:13:01.681Z,14.2
2018-07-23T06:18:01.389Z,13.3
2018-07-23T06:23:01.446Z,12.7
2018-07-23T06:28:01.391Z,11.8
2018-07-23T06:33:01.488Z,11.2
2018-07-23T06:38:01.333Z,10.6
2018-07-23T06:43:01.457Z,10.6
2018-07-23T06:48:01.382Z,10.0
2018-07-23T06:53:01.508Z,9.4
2018-07-23T06:58:01.382Z,9.0
2018-07-23T07:03:01.417Z,8.8
2018-07-23T07:08:01.327Z,8.6
2018-07-23T07:13:01.448Z,8.8
2018-07-23T07:18:01.391Z,8.8
2018-07-23T07:23:01.521Z,8.8
2018-07-23T07:28:01.391Z,8.8
2018-07-23T07:33:01.433Z,8.2
2018-07-23T07:38:01.813Z,8.0
2018-07-23T07:43:01.462Z,7.7
2018-07-23T07:49:01.595Z,7.3
2018-07-23T07:59:01.450Z,7.3
2018-07-23T08:04:01.659Z,7.1
2018-07-23T08:09:01.397Z,7.4
2018-07-23T08:14:02.425Z,7.6
2018-07-23T08:19:01.396Z,7.8
2018-07-23T08:24:01.426Z,7.6
2018-07-23T08:29:01.506Z,7.8
2018-07-23T08:34:01.413Z,7.6
2018-07-23T08:39:01.465Z,7.6
2018-07-23T08:44:01.384Z,7.4
2018-07-23T08:49:01.773Z,7.1
2018-07-23T08:54:01.367Z,6.8
2018-07-23T08:59:01.516Z,6.8
2018-07-23T09:09:01.575Z,6.2
2018-07-23T09:14:01.372Z,6.5
2018-07-23T09:19:01.439Z,6.7
2018-07-23T09:24:01.339Z,6.7
2018-07-23T09:34:01.476Z,7.2
2018-07-23T09:39:01.448Z,7.1
2018-07-23T09:44:01.412Z,7.1
2018-07-23T09:49:01.554Z,7.1
2018-07-23T09:55:01.356Z,7.1
2018-07-23T10:00:01.387Z,7.1
2018-07-23T10:05:01.386Z,7.4
2018-07-23T10:10:01.520Z,7.3
2018-07-23T10:15:01.386Z,7.3
2018-07-23T10:20:01.391Z,7.1
2018-07-23T10:25:01.357Z,7.0
2018-07-23T10:30:01.455Z,6.8
2018-07-23T10:35:01.549Z,7.0
2018-07-23T10:40:01.531Z,7.0
2018-07-23T10:45:01.386Z,6.8
2018-07-23T10:50:01.451Z,6.9
2018-07-23T11:00:01.444Z,6.8
2018-07-23T11:05:01.389Z,6.7
2018-07-23T11:10:01.459Z,6.9
2018-07-23T11:15:01.374Z,6.9
2018-07-23T11:21:01.406Z,6.8
2018-07-23T11:26:01.349Z,6.4
2018-07-23T11:31:01.445Z,6.2
2018-07-23T11:36:01.380Z,6.0
2018-07-23T11:41:01.480Z,5.6
2018-07-23T11:46:01.423Z,5.5
2018-07-23T11:51:01.630Z,5.9
2018-07-23T12:06:01.458Z,6.3
2018-07-23T12:11:01.454Z,6.6
2018-07-23T12:17:01.357Z,6.4
2018-07-23T12:22:01.470Z,6.3
2018-07-23T12:27:01.394Z,6.3
2018-07-23T12:32:01.445Z,6.1
2018-07-23T12:37:01.387Z,5.7
2018-07-23T12:42:01.512Z,5.3
2018-07-23T12:47:01.389Z,5.3
2018-07-23T12:52:01.454Z,4.9
2018-07-23T12:57:01.377Z,4.7
2018-07-23T13:02:01.436Z,4.8
2018-07-23T13:07:01.350Z,4.8
2018-07-23T13:12:01.445Z,4.2
2018-07-23T13:17:01.384Z,4.5
2018-07-23T13:22:01.512Z,4.3
2018-07-23T13:27:01.387Z,4.2
2018-07-23T13:32:01.455Z,4.1
2018-07-23T13:37:01.353Z,4.3
2018-07-23T13:42:01.469Z,4.1
2018-07-23T13:47:01.431Z,4.3
2018-07-23T13:52:01.535Z,4.2
2018-07-23T13:57:01.322Z,4.4
2018-07-23T14:02:01.482Z,4.4
2018-07-23T14:07:01.480Z,4.4
2018-07-23T14:12:01.454Z,4.0
2018-07-23T14:22:01.424Z,3.8
2018-07-23T14:28:01.376Z,4.1
2018-07-23T14:38:01.378Z,4.4
2018-07-23T14:43:01.481Z,4.6
2018-07-23T14:48:01.383Z,5.2
2018-07-23T14:53:01.728Z,5.5
2018-07-23T14:58:01.384Z,6.0
2018-07-23T15:03:01.456Z,6.1
2018-07-23T15:08:01.390Z,6.2
2018-07-23T15:18:01.530Z,5.9
2018-07-23T15:23:01.498Z,5.7
2018-07-23T15:28:01.425Z,5.8
2018-07-23T15:33:03.018Z,5.8
2018-07-23T15:38:01.419Z,6.0
2018-07-23T15:43:01.670Z,6.0
2018-07-23T15:48:01.392Z,6.2
2018-07-23T15:53:01.572Z,6.1
2018-07-23T15:58:01.359Z,6.1
2018-07-23T16:08:01.528Z,6.0
2018-07-23T16:18:01.407Z,6.0
2018-07-23T16:23:01.494Z,6.2
2018-07-23T16:33:01.510Z,6.7
2018-07-23T16:38:01.352Z,6.4
2018-07-23T16:43:01.330Z,6.4
2018-07-23T16:48:01.357Z,6.3
2018-07-23T16:53:01.482Z,6.4
2018-07-23T16:59:01.315Z,6.2
2018-07-23T17:04:01.320Z,6.2
2018-07-23T17:14:01.462Z,6.4
2018-07-23T17:19:01.773Z,6.3
2018-07-23T17:24:01.393Z,6.2
2018-07-23T17:29:01.419Z,6.4
2018-07-23T17:34:01.397Z,6.0
2018-07-23T17:39:01.383Z,6.0
2018-07-23T17:44:01.381Z,6.0
2018-07-23T17:49:01.444Z,5.8
2018-07-23T17:54:01.358Z,5.5
2018-07-23T17:59:01.459Z,5.7
2018-07-23T18:04:01.387Z,5.9
2018-07-23T18:09:01.467Z,6.1
2018-07-23T18:14:01.395Z,6.3
2018-07-23T18:19:01.457Z,6.4
2018-07-23T18:25:01.650Z,6.3
2018-07-23T18:30:01.449Z,6.3
2018-07-23T18:40:01.511Z,6.7
2018-07-23T18:45:01.390Z,7.1
2018-07-23T18:50:01.400Z,7.6
2018-07-23T18:55:01.460Z,7.6
2018-07-23T19:00:01.823Z,7.3
2018-07-23T19:06:01.360Z,7.2
2018-07-23T19:11:01.347Z,7.0
2018-07-23T19:16:01.357Z,6.6
2018-07-23T19:21:01.577Z,6.6
2018-07-23T19:31:02.417Z,6.4
2018-07-23T19:36:01.363Z,6.1
2018-07-23T19:41:01.670Z,6.1
2018-07-23T19:46:01.321Z,5.9
2018-07-23T19:51:01.520Z,6.0
2018-07-23T19:56:01.409Z,6.0
2018-07-23T20:06:01.405Z,6.3
2018-07-23T20:11:01.384Z,6.5
2018-07-23T20:21:01.388Z,6.3
2018-07-23T20:26:01.425Z,6.2
2018-07-23T20:31:01.391Z,6.4
2018-07-23T20:36:01.357Z,6.4
2018-07-23T20:41:01.395Z,6.9
2018-07-23T20:46:01.371Z,7.3
2018-07-23T20:51:01.452Z,7.6
2018-07-23T20:56:01.380Z,7.6
2018-07-23T21:01:01.417Z,7.9
2018-07-23T21:06:01.347Z,7.9
2018-07-23T21:11:01.461Z,8.0
2018-07-23T21:16:01.361Z,8.2
2018-07-23T21:21:01.426Z,8.6
2018-07-23T21:26:01.358Z,8.7
2018-07-23T21:31:01.418Z,9.0
2018-07-23T21:36:01.295Z,9.0
2018-07-23T21:41:01.482Z,9.0
2018-07-23T21:46:01.450Z,8.9
2018-07-23T21:51:01.430Z,9.0
2018-07-23T21:56:01.365Z,9.2
2018-07-23T22:01:01.557Z,9.5
2018-07-23T22:06:06.369Z,9.9
2018-07-23T22:11:01.560Z,10.0
2018-07-23T22:16:01.396Z,10.0
2018-07-23T22:21:01.519Z,9.7
2018-07-23T22:26:01.328Z,9.9
2018-07-23T22:31:01.461Z,9.5
2018-07-23T22:41:01.413Z,9.7
2018-07-23T22:46:01.321Z,9.9
2018-07-23T22:51:01.512Z,10.0
2018-07-23T22:56:01.404Z,10.6
2018-07-23T23:01:01.481Z,10.9
2018-07-23T23:06:06.360Z,10.9
2018-07-23T23:11:01.382Z,10.7
2018-07-23T23:21:06.461Z,10.1
2018-07-23T23:26:01.320Z,10.3
2018-07-23T23:31:01.473Z,10.6
2018-07-23T23:36:01.313Z,10.8
2018-07-23T23:41:01.388Z,10.7
2018-07-23T23:46:01.316Z,11.0
2018-07-23T23:51:06.389Z,10.6
2018-07-23T23:56:01.307Z,10.6
